Time;durP1;ratioP1;P1;durP2;ratioP2;P2;SDS_P1;SDS_P2;PMS_P1;PMS_P2;Temp;Humidity;BMP_temperature;BMP_pressure;BME280_temperature;BME280_humidity;BME280_pressure;Samples;Min_cycle;Max_cycle;Signal;HPM_P1;HPM_P2
2022/05/15 00:02:36;;;;;;;31.83;5.72;;;15.50;55.60;;;;;;9187338;19;20025;-72
2022/05/15 00:05:45;;;;;;;34.33;6.38;;;15.40;55.60;;;;;;9182842;19;19999;-72
2022/05/15 00:08:54;;;;;;;29.23;6.00;;;15.40;55.80;;;;;;9185787;19;20010;-72
2022/05/15 00:12:04;;;;;;;32.75;5.25;;;15.30;55.70;;;;;;9187013;19;20010;-73
2022/05/15 00:15:13;;;;;;;29.95;5.53;;;15.30;55.80;;;;;;9184104;19;20480;-72
2022/05/15 00:18:21;;;;;;;33.30;5.45;;;15.20;55.90;;;;;;9186791;19;20019;-72
2022/05/15 00:21:31;;;;;;;35.92;6.65;;;15.20;56.00;;;;;;9183222;19;20477;-73
2022/05/15 00:24:41;;;;;;;38.83;6.32;;;15.20;56.10;;;;;;9184108;19;20384;-74
2022/05/15 00:27:50;;;;;;;37.15;6.55;;;15.10;56.10;;;;;;9185015;19;20019;-73
2022/05/15 00:30:55;;;;;;;30.10;5.78;;;15.10;56.10;;;;;;9186085;19;20617;-72
2022/05/15 00:34:03;;;;;;;25.08;5.18;;;15.00;56.20;;;;;;9182082;19;20018;-73
2022/05/15 00:37:11;;;;;;;29.10;6.78;;;15.00;56.30;;;;;;9183128;19;20519;-73
2022/05/15 00:40:18;;;;;;;32.92;5.82;;;15.00;56.40;;;;;;9184554;19;20082;-72
2022/05/15 00:43:43;;;;;;;25.88;5.57;;;14.90;56.40;;;;;;9180125;19;20017;-72
2022/05/15 00:46:50;;;;;;;30.23;5.43;;;14.90;56.70;;;;;;9180658;19;20021;-73
2022/05/15 00:49:57;;;;;;;24.60;5.68;;;14.80;56.40;;;;;;9183377;19;20039;-73
2022/05/15 00:53:13;;;;;;;27.98;5.47;;;14.80;56.60;;;;;;9182511;19;20041;-72
2022/05/15 00:56:21;;;;;;;30.85;5.75;;;14.80;56.80;;;;;;9183578;19;20691;-71
2022/05/15 00:59:36;;;;;;;28.65;5.85;;;14.70;56.70;;;;;;9182383;19;20010;-72
2022/05/15 01:02:44;;;;;;;21.33;4.65;;;14.40;56.70;;;;;;9180778;19;20508;-73
2022/05/15 01:05:53;;;;;;;27.70;6.03;;;14.60;56.90;;;;;;9179455;19;20045;-72
2022/05/15 01:09:06;;;;;;;28.67;6.72;;;14.60;56.90;;;;;;9182117;19;20023;-72
2022/05/15 01:12:16;;;;;;;30.30;5.88;;;14.50;57.00;;;;;;9183069;19;20010;-73
2022/05/15 01:15:24;;;;;;;29.55;5.40;;;14.50;57.10;;;;;;9184514;19;20467;-72
2022/05/15 01:18:34;;;;;;;24.85;5.43;;;14.50;57.20;;;;;;9181590;19;20022;-73
2022/05/15 01:21:53;;;;;;;40.05;6.05;;;14.50;57.30;;;;;;9178220;19;20034;-72
2022/05/15 01:24:58;;;;;;;28.10;5.50;;;14.40;57.40;;;;;;9177178;19;20018;-73
2022/05/15 01:28:09;;;;;;;31.35;6.65;;;14.40;57.40;;;;;;9176435;19;20035;-75
2022/05/15 01:31:17;;;;;;;28.83;5.18;;;14.30;57.40;;;;;;9176591;19;20010;-73
2022/05/15 01:34:23;;;;;;;31.83;5.60;;;14.30;57.40;;;;;;9174162;19;20017;-73
2022/05/15 01:37:33;;;;;;;21.90;5.50;;;14.20;57.50;;;;;;9175878;19;20022;-73
2022/05/15 01:40:40;;;;;;;35.13;6.65;;;14.20;57.70;;;;;;9175093;19;20018;-72
2022/05/15 01:43:52;;;;;;;23.40;5.75;;;14.20;57.70;;;;;;9173227;19;20022;-73
2022/05/15 01:47:04;;;;;;;35.47;6.35;;;14.20;57.80;;;;;;9177467;19;20015;-72
2022/05/15 01:50:12;;;;;;;28.13;5.45;;;14.10;57.90;;;;;;9175970;19;20073;-72
2022/05/15 01:53:22;;;;;;;28.27;5.43;;;14.10;57.90;;;;;;9176113;19;20014;-72
2022/05/15 01:56:29;;;;;;;28.88;5.85;;;14.10;58.10;;;;;;9174807;19;20021;-73
2022/05/15 01:59:38;;;;;;;28.20;5.63;;;14.00;58.10;;;;;;9176639;19;20022;-72
2022/05/15 02:02:46;;;;;;;32.63;6.28;;;14.00;58.10;;;;;;9174690;19;20048;-74
2022/05/15 02:05:54;;;;;;;20.70;4.70;;;14.00;58.20;;;;;;9172783;19;20021;-73
2022/05/15 02:09:07;;;;;;;28.80;6.32;;;14.00;58.30;;;;;;9174704;19;20049;-72
2022/05/15 02:12:16;;;;;;;26.05;5.75;;;13.90;58.50;;;;;;9176051;19;20018;-72
2022/05/15 02:15:22;;;;;;;28.73;6.93;;;13.90;58.40;;;;;;9178975;19;20038;-72
2022/05/15 02:18:33;;;;;;;27.60;6.13;;;13.80;58.40;;;;;;9175334;19;20025;-72
2022/05/15 02:21:41;;;;;;;25.02;5.00;;;13.80;58.40;;;;;;9174625;19;20352;-72
2022/05/15 02:24:50;;;;;;;26.05;6.05;;;13.80;58.50;;;;;;9175048;19;20029;-72
2022/05/15 02:27:57;;;;;;;14.63;4.72;;;13.80;58.80;;;;;;9174799;19;20018;-73
2022/05/15 02:31:07;;;;;;;27.35;5.70;;;13.70;58.70;;;;;;9173666;19;20025;-72
2022/05/15 02:34:18;;;;;;;18.63;5.60;;;13.70;58.80;;;;;;9172610;19;20022;-71
2022/05/15 02:37:24;;;;;;;36.10;6.10;;;13.70;58.80;;;;;;9173896;19;20021;-72
2022/05/15 02:40:37;;;;;;;33.60;5.40;;;13.60;58.80;;;;;;9173416;19;20029;-73
2022/05/15 02:43:43;;;;;;;28.30;5.90;;;13.60;59.00;;;;;;9171883;19;20672;-72
2022/05/15 02:46:50;;;;;;;22.85;5.30;;;13.60;59.10;;;;;;9172673;19;20019;-72
2022/05/15 02:53:16;;;;;;;32.80;7.18;;;13.50;59.20;;;;;;9173833;19;20007;-72
2022/05/15 02:56:29;;;;;;;24.02;5.68;;;13.50;59.30;;;;;;9173851;19;20018;-72
2022/05/15 02:59:44;;;;;;;27.90;6.78;;;13.40;59.50;;;;;;9173941;19;20049;-73
2022/05/15 03:02:49;;;;;;;30.27;5.68;;;13.40;59.40;;;;;;9173475;19;20014;-73
2022/05/15 03:05:55;;;;;;;26.80;6.38;;;13.40;59.50;;;;;;9169694;19;20019;-72
2022/05/15 03:09:00;;;;;;;37.25;6.25;;;13.40;59.60;;;;;;9177753;19;20010;-72
2022/05/15 03:12:10;;;;;;;25.98;5.90;;;13.30;59.60;;;;;;9182965;19;20059;-72
2022/05/15 03:15:20;;;;;;;23.65;6.22;;;13.30;59.80;;;;;;9179135;19;20026;-72
2022/05/15 03:18:27;;;;;;;24.88;5.18;;;13.20;59.70;;;;;;9181162;19;20028;-71
2022/05/15 03:21:34;;;;;;;26.20;5.55;;;13.20;59.80;;;;;;9184689;19;20019;-73
2022/05/15 03:24:41;;;;;;;25.13;6.72;;;13.20;59.90;;;;;;9181698;19;20018;-72
2022/05/15 03:27:49;;;;;;;26.05;5.70;;;13.10;60.00;;;;;;9182028;19;20078;-73
2022/05/15 03:30:54;;;;;;;25.40;5.03;;;13.10;60.10;;;;;;9181333;19;20647;-73
2022/05/15 03:34:00;;;;;;;30.65;6.75;;;13.10;60.10;;;;;;9179557;19;20022;-72
2022/05/15 03:37:11;;;;;;;31.17;6.18;;;13.00;60.20;;;;;;9181118;19;20115;-72
2022/05/15 03:40:19;;;;;;;24.83;4.78;;;13.00;60.40;;;;;;9180287;19;20022;-73
2022/05/15 03:43:34;;;;;;;27.27;6.13;;;13.00;60.40;;;;;;9176215;19;20018;-72
2022/05/15 03:46:39;;;;;;;30.85;6.78;;;13.00;60.50;;;;;;9182061;19;20081;-71
2022/05/15 03:49:47;;;;;;;30.27;5.97;;;12.90;60.40;;;;;;9179497;19;20066;-73
2022/05/15 03:52:55;;;;;;;28.70;6.25;;;12.90;60.60;;;;;;9180727;19;20021;-72
2022/05/15 03:56:00;;;;;;;26.70;5.45;;;12.90;60.60;;;;;;9179706;19;20017;-73
2022/05/15 03:59:09;;;;;;;29.95;6.13;;;12.90;60.70;;;;;;9179836;19;20130;-73
2022/05/15 04:02:15;;;;;;;21.75;5.30;;;12.90;60.90;;;;;;9181851;19;20019;-72
2022/05/15 04:05:21;;;;;;;23.42;5.57;;;12.80;60.90;;;;;;9177452;19;20018;-72
2022/05/15 04:08:27;;;;;;;26.17;5.85;;;12.80;61.00;;;;;;9182119;19;20015;-71
2022/05/15 04:11:34;;;;;;;22.85;5.70;;;12.80;61.00;;;;;;9181611;19;20020;-72
2022/05/15 04:14:42;;;;;;;20.55;5.72;;;12.70;61.10;;;;;;9182788;19;20019;-74
2022/05/15 04:17:50;;;;;;;19.95;5.32;;;12.80;61.30;;;;;;9185530;19;20034;-74
2022/05/15 04:20:55;;;;;;;22.30;5.22;;;12.70;61.30;;;;;;9181336;19;20022;-72
2022/05/15 04:24:03;;;;;;;24.60;5.93;;;12.70;61.30;;;;;;9183436;19;20022;-72
2022/05/15 04:27:12;;;;;;;25.98;5.28;;;12.70;61.50;;;;;;9182479;19;20033;-72
2022/05/15 04:30:29;;;;;;;23.38;5.57;;;12.60;61.50;;;;;;9184301;19;20073;-72
2022/05/15 04:33:37;;;;;;;19.95;5.60;;;12.60;61.70;;;;;;9182081;19;20476;-72
2022/05/15 04:36:46;;;;;;;16.15;4.43;;;12.60;61.60;;;;;;9183281;19;20560;-75
2022/05/15 04:39:53;;;;;;;22.20;5.32;;;12.60;61.70;;;;;;9183657;19;20018;-73
2022/05/15 04:42:58;;;;;;;19.50;5.13;;;12.60;61.80;;;;;;9180327;19;20526;-73
2022/05/15 04:46:07;;;;;;;20.38;4.63;;;12.60;61.90;;;;;;9182988;19;20047;-73
2022/05/15 04:49:15;;;;;;;30.60;5.55;;;12.60;62.00;;;;;;9182347;19;20015;-73
2022/05/15 04:52:21;;;;;;;27.20;5.32;;;12.60;62.00;;;;;;9184585;19;20463;-73
2022/05/15 04:55:26;;;;;;;22.05;5.63;;;12.60;62.20;;;;;;9180034;19;20010;-73
2022/05/15 04:58:31;;;;;;;17.70;5.38;;;12.60;62.20;;;;;;9183116;19;20006;-72
2022/05/15 05:01:42;;;;;;;20.30;5.13;;;12.60;62.30;;;;;;9182172;19;20019;-71
2022/05/15 05:04:47;;;;;;;24.50;5.07;;;12.60;62.60;;;;;;9181138;19;20482;-73
2022/05/15 05:07:54;;;;;;;20.35;5.35;;;12.60;62.50;;;;;;9181318;19;20026;-72
2022/05/15 05:11:03;;;;;;;26.90;5.20;;;12.60;62.50;;;;;;9183063;19;20352;-73
2022/05/15 05:14:09;;;;;;;22.77;6.25;;;12.60;62.60;;;;;;9180627;19;20013;-73
2022/05/15 05:17:17;;;;;;;23.52;5.50;;;12.60;62.70;;;;;;9180809;19;20014;-73
2022/05/15 05:20:22;;;;;;;26.58;6.38;;;12.70;62.90;;;;;;9180893;19;20433;-72
2022/05/15 05:23:27;;;;;;;22.33;4.90;;;12.70;62.80;;;;;;9182831;19;20025;-73
2022/05/15 05:26:34;;;;;;;20.58;4.50;;;12.80;62.90;;;;;;9182232;19;20014;-72
2022/05/15 05:29:39;;;;;;;17.48;4.65;;;12.80;62.90;;;;;;9179819;19;20048;-73
2022/05/15 05:32:47;;;;;;;21.75;4.80;;;12.90;63.10;;;;;;9181420;19;20015;-72
2022/05/15 05:35:53;;;;;;;19.92;4.50;;;13.00;63.20;;;;;;9178145;19;20015;-74
2022/05/15 05:39:03;;;;;;;18.05;4.90;;;13.00;63.10;;;;;;9181742;19;20498;-72
2022/05/15 05:42:09;;;;;;;23.90;6.63;;;13.10;63.30;;;;;;9178397;19;20010;-73
2022/05/15 05:45:17;;;;;;;17.73;4.38;;;13.20;63.20;;;;;;9182813;19;20018;-73
2022/05/15 05:48:25;;;;;;;17.48;4.28;;;13.30;63.20;;;;;;9179694;19;20022;-73
2022/05/15 05:51:33;;;;;;;15.07;4.45;;;13.50;63.30;;;;;;9180450;19;20353;-73
2022/05/15 05:54:38;;;;;;;20.23;4.50;;;13.60;63.30;;;;;;9179905;19;20041;-73
2022/05/15 05:57:55;;;;;;;17.88;4.43;;;13.80;63.30;;;;;;9181343;19;20540;-73
2022/05/15 06:01:10;;;;;;;30.33;4.90;;;13.90;63.20;;;;;;9179094;19;20014;-73
2022/05/15 06:07:38;;;;;;;25.85;4.68;;;14.20;63.00;;;;;;9178950;19;20006;-72
2022/05/15 06:10:47;;;;;;;20.23;4.55;;;14.40;62.90;;;;;;9181207;19;20036;-73
2022/05/15 06:13:55;;;;;;;18.15;4.63;;;14.60;62.80;;;;;;9181583;19;20050;-72
2022/05/15 06:17:00;;;;;;;20.10;4.38;;;14.70;62.70;;;;;;9180923;19;20014;-73
2022/05/15 06:20:13;;;;;;;14.52;4.22;;;14.90;62.60;;;;;;9177993;19;20022;-73
2022/05/15 06:23:21;;;;;;;20.52;4.95;;;15.00;62.70;;;;;;9181155;19;20017;-73
2022/05/15 06:26:26;;;;;;;18.52;4.80;;;15.20;62.50;;;;;;9179887;19;20483;-73
2022/05/15 06:29:31;;;;;;;19.70;5.47;;;15.40;62.50;;;;;;9179884;19;20021;-72
2022/05/15 06:32:38;;;;;;;22.08;4.32;;;15.60;62.40;;;;;;9179287;19;20376;-73
2022/05/15 06:35:47;;;;;;;13.48;4.10;;;15.70;62.20;;;;;;9179094;19;20011;-72
2022/05/15 06:38:55;;;;;;;19.05;5.45;;;15.90;62.20;;;;;;9180486;19;20042;-73
2022/05/15 06:42:01;;;;;;;23.75;4.55;;;16.10;62.10;;;;;;9174927;19;20092;-73
2022/05/15 06:45:16;;;;;;;17.05;4.55;;;16.30;61.90;;;;;;9187461;19;20011;-73
2022/05/15 06:48:23;;;;;;;20.25;4.35;;;16.50;61.80;;;;;;9187983;19;20011;-73
2022/05/15 06:51:31;;;;;;;18.38;3.70;;;16.60;61.70;;;;;;9187585;19;20014;-73
2022/05/15 06:54:39;;;;;;;17.77;4.65;;;16.80;61.60;;;;;;9186587;19;20015;-73
2022/05/15 06:57:47;;;;;;;17.30;3.95;;;17.00;61.40;;;;;;9187890;19;20010;-72
2022/05/15 07:00:55;;;;;;;13.73;3.90;;;17.10;61.30;;;;;;9187870;19;20041;-72
2022/05/15 07:04:00;;;;;;;14.93;4.18;;;17.30;61.20;;;;;;9185536;19;20019;-73
2022/05/15 07:07:17;;;;;;;17.65;4.38;;;17.40;61.10;;;;;;9187569;19;20554;-73
2022/05/15 07:10:27;;;;;;;20.77;5.53;;;17.60;61.00;;;;;;9189140;19;20022;-74
2022/05/15 07:13:32;;;;;;;16.88;4.20;;;17.80;60.90;;;;;;9187329;19;20122;-73
2022/05/15 07:16:40;;;;;;;17.60;3.92;;;18.00;60.60;;;;;;9183912;19;20082;-73
2022/05/15 07:19:45;;;;;;;11.45;3.95;;;18.20;60.50;;;;;;9188040;19;20030;-73
2022/05/15 07:22:53;;;;;;;20.10;4.20;;;18.40;60.30;;;;;;9186843;19;20043;-73
2022/05/15 07:25:59;;;;;;;21.33;4.00;;;18.60;60.10;;;;;;9188481;19;20364;-74
2022/05/15 07:29:04;;;;;;;19.50;5.10;;;18.80;60.00;;;;;;9186398;19;20019;-72
2022/05/15 07:32:12;;;;;;;15.00;4.38;;;19.00;59.80;;;;;;9186815;19;20480;-74
2022/05/15 07:35:20;;;;;;;16.13;3.38;;;19.20;59.60;;;;;;9181708;19;20019;-73
2022/05/15 07:38:39;;;;;;;23.23;4.55;;;19.30;59.50;;;;;;9185155;19;20022;-73
2022/05/15 07:41:44;;;;;;;16.70;4.55;;;19.60;59.40;;;;;;9172593;19;20015;-74
2022/05/15 07:44:50;;;;;;;21.38;4.10;;;19.80;59.20;;;;;;9177911;19;20010;-76
2022/05/15 07:47:55;;;;;;;18.00;4.13;;;19.90;58.90;;;;;;9175983;19;20026;-75
2022/05/15 07:51:00;;;;;;;19.35;4.13;;;20.10;58.70;;;;;;9176152;19;20372;-74
2022/05/15 07:54:08;;;;;;;19.90;3.83;;;20.30;58.60;;;;;;9170616;19;20049;-74
2022/05/15 07:57:17;;;;;;;21.33;4.32;;;20.40;58.50;;;;;;9171737;19;20507;-74
2022/05/15 08:00:23;;;;;;;16.70;3.80;;;20.60;58.30;;;;;;9176942;19;20018;-74
2022/05/15 08:03:33;;;;;;;19.05;4.35;;;20.80;58.20;;;;;;9173467;19;20018;-75
2022/05/15 08:09:58;;;;;;;15.65;3.75;;;21.20;57.60;;;;;;9177581;19;20361;-73
2022/05/15 08:13:05;;;;;;;20.30;3.80;;;21.40;57.40;;;;;;9166025;19;20477;-74
2022/05/15 08:16:12;;;;;;;15.02;4.00;;;21.60;57.20;;;;;;9176947;19;20633;-75
2022/05/15 08:25:59;;;;;;;18.23;4.40;;;22.10;56.70;;;;;;9177020;19;20022;-74
2022/05/15 08:29:04;;;;;;;15.45;3.40;;;22.30;56.40;;;;;;9163288;19;20018;-77
2022/05/15 08:32:12;;;;;;;26.02;4.47;;;22.50;56.30;;;;;;9179156;19;20022;-75
2022/05/15 08:35:21;;;;;;;16.00;3.33;;;22.70;56.00;;;;;;9173473;19;20015;-75
2022/05/15 08:38:29;;;;;;;16.40;3.92;;;22.90;55.90;;;;;;9176941;19;20022;-77
2022/05/15 08:41:47;;;;;;;19.55;4.28;;;23.00;55.60;;;;;;9179027;19;20010;-75
2022/05/15 08:44:58;;;;;;;21.88;4.07;;;23.20;55.10;;;;;;9177712;19;20357;-78
2022/05/15 08:48:08;;;;;;;16.77;4.07;;;23.30;55.00;;;;;;9172080;19;20019;-75
2022/05/15 08:51:18;;;;;;;14.70;3.65;;;23.50;54.80;;;;;;9170893;19;20370;-75
2022/05/15 08:54:24;;;;;;;16.25;3.60;;;23.60;54.50;;;;;;9181379;19;20022;-75
2022/05/15 08:57:39;;;;;;;17.48;3.55;;;23.70;54.30;;;;;;9175099;19;20022;-75
2022/05/15 09:00:47;;;;;;;15.55;3.67;;;23.90;53.90;;;;;;9177176;19;20025;-79
2022/05/15 09:03:53;;;;;;;18.75;4.57;;;24.00;53.80;;;;;;9175784;19;20085;-78
2022/05/15 09:07:10;;;;;;;17.88;3.95;;;24.10;53.70;;;;;;9174235;19;20601;-77
2022/05/15 09:10:24;;;;;;;20.15;4.20;;;24.20;53.20;;;;;;9175116;19;20019;-73
2022/05/15 09:13:42;;;;;;;16.23;3.53;;;24.30;53.10;;;;;;9176513;19;20014;-72
2022/05/15 09:16:56;;;;;;;22.30;3.72;;;24.50;52.90;;;;;;9173363;19;20484;-73
2022/05/15 09:20:02;;;;;;;;;;;24.60;52.60;;;;;;9177078;19;20023;-73
2022/05/15 09:23:18;;;;;;;14.23;3.33;;;24.80;53.20;;;;;;9175637;19;19922;-73
2022/05/15 09:26:29;;;;;;;13.63;3.45;;;24.80;52.70;;;;;;9173333;19;20015;-73
2022/05/15 09:29:37;;;;;;;14.98;3.80;;;25.00;52.20;;;;;;9172976;19;20474;-74
2022/05/15 09:32:44;;;;;;;19.80;4.13;;;25.00;52.10;;;;;;9174239;19;20056;-71
2022/05/15 09:35:50;;;;;;;18.45;3.50;;;25.20;52.00;;;;;;9173070;19;20018;-74
2022/05/15 09:39:12;;;;;;;20.63;5.13;;;25.20;51.70;;;;;;9174091;19;20368;-72
2022/05/15 09:45:58;;;;;;;17.27;4.40;;;25.50;51.10;;;;;;9174976;19;20034;-73
2022/05/15 09:49:08;;;;;;;13.50;3.83;;;25.60;50.60;;;;;;9172071;19;20022;-72
2022/05/15 09:52:17;;;;;;;15.10;3.28;;;25.70;50.70;;;;;;9171426;19;20014;-73
2022/05/15 09:55:25;;;;;;;21.35;3.60;;;25.80;50.40;;;;;;9174085;19;20018;-72
2022/05/15 09:58:40;;;;;;;23.55;4.20;;;25.90;50.20;;;;;;9173490;19;20037;-73
2022/05/15 10:02:00;;;;;;;17.63;3.97;;;26.00;49.70;;;;;;9172327;19;20026;-72
2022/05/15 10:05:14;;;;;;;30.27;3.50;;;26.10;49.50;;;;;;9169488;19;20022;-73
2022/05/15 10:08:26;;;;;;;16.35;3.80;;;26.20;49.40;;;;;;9172522;19;20122;-70
2022/05/15 10:11:31;;;;;;;14.30;3.38;;;26.30;49.10;;;;;;9172944;19;20014;-73
2022/05/15 10:14:42;;;;;;;18.25;3.97;;;26.40;49.10;;;;;;9173127;19;20034;-72
2022/05/15 10:17:55;;;;;;;24.15;4.50;;;26.60;48.90;;;;;;9174256;19;20019;-71
2022/05/15 10:21:04;;;;;;;16.60;3.50;;;26.60;48.60;;;;;;9181664;19;20010;-74
2022/05/15 10:24:15;;;;;;;12.65;3.13;;;26.80;48.80;;;;;;9181110;19;20479;-73
2022/05/15 10:27:26;;;;;;;14.90;3.67;;;26.90;48.30;;;;;;9178478;19;20658;-70
2022/05/15 10:30:49;;;;;;;19.02;3.58;;;26.90;48.10;;;;;;9180659;19;20034;-70
2022/05/15 10:34:04;;;;;;;21.83;3.70;;;27.10;47.90;;;;;;9179831;19;20010;-73
2022/05/15 10:37:22;;;;;;;23.30;4.22;;;27.20;47.60;;;;;;9180401;19;20014;-73
2022/05/15 10:40:34;;;;;;;12.02;3.35;;;27.30;47.50;;;;;;9183418;19;20016;-73
2022/05/15 10:44:04;;;;;;;17.25;3.45;;;27.30;47.30;;;;;;9176201;19;20018;-73
2022/05/15 10:47:17;;;;;;;19.33;3.70;;;27.40;47.00;;;;;;9182938;19;20010;-70
2022/05/15 10:50:30;;;;;;;18.38;4.15;;;27.40;46.90;;;;;;9180369;19;20079;-71
2022/05/15 10:57:32;;;;;;;20.20;3.90;;;27.50;46.50;;;;;;9179512;19;20372;-69
2022/05/15 11:00:47;;;;;;;14.48;3.45;;;27.50;46.40;;;;;;9178024;19;20015;-73
2022/05/15 11:04:04;;;;;;;14.20;3.38;;;27.50;46.60;;;;;;9178336;19;20760;-74
2022/05/15 11:07:21;;;;;;;12.20;3.22;;;27.60;46.30;;;;;;9182772;19;20011;-73
2022/05/15 11:10:33;;;;;;;18.23;4.10;;;27.60;46.00;;;;;;9184414;19;20765;-72
2022/05/15 11:13:49;;;;;;;16.38;3.30;;;27.60;45.80;;;;;;9180552;19;20715;-72
2022/05/15 11:17:10;;;;;;;18.83;3.78;;;27.60;45.60;;;;;;9180804;19;20321;-73
2022/05/15 11:20:20;;;;;;;14.70;3.70;;;27.70;45.40;;;;;;9180284;19;20019;-72
2022/05/15 11:23:36;;;;;;;16.98;3.45;;;27.70;45.50;;;;;;9183291;19;20015;-73
2022/05/15 11:26:49;;;;;;;15.52;3.60;;;27.70;45.40;;;;;;9180541;19;20026;-73
2022/05/15 11:30:00;;;;;;;15.40;2.92;;;27.80;45.30;;;;;;9178242;19;20018;-71
2022/05/15 11:33:08;;;;;;;11.75;3.30;;;27.80;45.10;;;;;;9175794;19;20056;-72
2022/05/15 11:36:16;;;;;;;18.95;4.75;;;27.80;45.00;;;;;;9178672;19;20070;-71
2022/05/15 11:39:28;;;;;;;13.25;3.60;;;27.80;45.30;;;;;;9176955;19;20025;-73
2022/05/15 11:42:33;;;;;;;17.52;4.15;;;27.80;44.80;;;;;;9176276;19;20011;-72
2022/05/15 11:45:42;;;;;;;14.63;3.38;;;27.80;44.90;;;;;;9181542;19;20015;-70
2022/05/15 11:48:58;;;;;;;15.98;3.65;;;27.80;44.80;;;;;;9184604;19;20487;-72
2022/05/15 11:52:35;;;;;;;10.75;3.30;;;27.80;44.40;;;;;;9185091;19;20015;-72
2022/05/15 11:55:47;;;;;;;19.15;3.95;;;27.80;44.40;;;;;;9186247;19;20022;-71
2022/05/15 11:58:57;;;;;;;15.10;3.20;;;27.70;44.40;;;;;;9181925;19;20037;-70
2022/05/15 12:02:05;;;;;;;18.90;3.42;;;27.70;44.30;;;;;;9183877;19;20751;-71
2022/05/15 12:05:24;;;;;;;17.92;3.25;;;27.70;44.30;;;;;;9181373;19;20038;-72
2022/05/15 12:08:35;;;;;;;19.02;4.15;;;27.80;44.20;;;;;;9183060;19;20030;-70
2022/05/15 12:11:46;;;;;;;18.65;3.28;;;27.80;44.00;;;;;;9185254;19;20014;-71
2022/05/15 12:15:06;;;;;;;11.65;2.90;;;27.90;43.80;;;;;;9183027;19;20023;-70
2022/05/15 12:18:37;;;;;;;11.50;2.88;;;27.90;43.50;;;;;;9181525;19;20025;-72
2022/05/15 12:21:47;;;;;;;17.38;3.38;;;28.00;43.40;;;;;;9184872;19;20013;-71
2022/05/15 12:24:52;;;;;;;16.38;3.65;;;28.10;43.60;;;;;;9183049;19;20511;-70
2022/05/15 12:31:43;;;;;;;19.88;3.65;;;28.10;43.00;;;;;;9184558;19;20018;-72
2022/05/15 12:34:58;;;;;;;15.55;2.92;;;28.00;42.90;;;;;;9184414;19;20022;-72
2022/05/15 12:38:08;;;;;;;8.60;2.67;;;28.00;43.10;;;;;;9181091;19;20391;-71
2022/05/15 12:41:18;;;;;;;13.52;2.92;;;28.00;43.00;;;;;;9180745;19;20531;-72
2022/05/15 12:44:38;;;;;;;17.58;3.33;;;28.10;42.80;;;;;;9179669;19;20014;-70
2022/05/15 12:47:48;;;;;;;16.85;3.35;;;28.10;42.50;;;;;;9183916;19;20018;-71
2022/05/15 12:51:02;;;;;;;12.25;2.97;;;28.10;42.70;;;;;;9183543;19;20021;-70
2022/05/15 12:54:24;;;;;;;9.40;3.00;;;28.10;42.60;;;;;;9182977;19;20022;-70
2022/05/15 12:57:29;;;;;;;11.60;2.80;;;28.10;42.20;;;;;;9181166;19;20018;-70
2022/05/15 13:00:39;;;;;;;16.80;3.03;;;28.20;42.30;;;;;;9181573;19;20022;-72
2022/05/15 13:03:49;;;;;;;14.00;3.88;;;28.10;41.90;;;;;;9181853;19;20029;-70
2022/05/15 13:06:58;;;;;;;22.98;3.67;;;28.20;42.00;;;;;;9183204;19;20019;-70
2022/05/15 13:10:07;;;;;;;15.45;3.17;;;28.20;41.80;;;;;;9181989;19;20089;-70
2022/05/15 13:13:22;;;;;;;14.55;2.92;;;28.10;41.80;;;;;;9183325;19;20011;-69
2022/05/15 13:16:32;;;;;;;12.32;2.63;;;28.10;41.70;;;;;;9181372;19;20010;-71
2022/05/15 13:19:46;;;;;;;18.98;3.20;;;28.10;41.80;;;;;;9180579;19;20042;-70
2022/05/15 13:22:52;;;;;;;11.48;2.25;;;28.20;41.70;;;;;;9182310;19;20023;-71
2022/05/15 13:25:59;;;;;;;11.90;2.92;;;28.20;41.70;;;;;;9180307;19;20089;-70
2022/05/15 13:29:05;;;;;;;12.95;3.08;;;28.20;41.50;;;;;;9182947;19;20014;-70
2022/05/15 13:32:17;;;;;;;7.15;2.60;;;28.10;41.30;;;;;;9181662;19;20022;-72
2022/05/15 13:35:22;;;;;;;15.90;3.08;;;28.10;41.10;;;;;;9180825;19;20018;-70
2022/05/15 13:38:32;;;;;;;11.40;3.05;;;28.00;41.30;;;;;;9179678;19;20014;-69
2022/05/15 13:45:11;;;;;;;11.50;3.45;;;27.90;41.00;;;;;;9180187;19;20761;-69
2022/05/15 13:48:19;;;;;;;18.67;3.83;;;27.90;41.10;;;;;;9181089;19;20094;-69
2022/05/15 13:51:40;;;;;;;13.18;3.22;;;27.80;40.90;;;;;;9175378;19;20112;-69
2022/05/15 13:54:47;;;;;;;13.80;3.22;;;27.80;40.90;;;;;;9177795;19;20082;-69
2022/05/15 13:57:54;;;;;;;8.88;2.80;;;27.80;41.00;;;;;;9179890;19;20018;-72
2022/05/15 14:01:04;;;;;;;13.32;2.90;;;27.70;41.00;;;;;;9178046;19;20018;-71
2022/05/15 14:04:32;;;;;;;8.88;2.60;;;27.70;40.80;;;;;;9178242;19;20014;-71
2022/05/15 14:07:41;;;;;;;11.00;2.50;;;27.70;40.50;;;;;;9179200;19;20094;-71
2022/05/15 14:10:48;;;;;;;11.13;3.08;;;27.70;40.70;;;;;;9181751;19;20032;-70
2022/05/15 14:13:57;;;;;;;10.23;2.63;;;27.70;40.80;;;;;;9179283;19;20360;-70
2022/05/15 14:17:06;;;;;;;13.05;3.38;;;27.70;40.60;;;;;;9179023;19;20363;-71
2022/05/15 14:20:14;;;;;;;12.07;2.85;;;27.70;40.60;;;;;;9178898;19;20526;-71
2022/05/15 14:23:23;;;;;;;14.40;2.63;;;27.70;40.50;;;;;;9178659;19;20053;-70
2022/05/15 14:26:29;;;;;;;11.05;3.17;;;27.60;40.60;;;;;;9178734;19;20460;-71
2022/05/15 14:29:39;;;;;;;16.63;3.35;;;27.60;40.50;;;;;;9180296;19;20348;-70
2022/05/15 14:32:53;;;;;;;15.60;2.85;;;27.60;40.50;;;;;;9180363;19;20123;-69
2022/05/15 14:36:07;;;;;;;12.43;3.30;;;27.50;40.40;;;;;;9178696;19;20014;-72
2022/05/15 14:39:13;;;;;;;10.23;2.67;;;27.40;40.40;;;;;;9177434;19;20019;-71
2022/05/15 14:42:19;;;;;;;13.52;2.88;;;27.40;40.50;;;;;;9174589;19;20348;-71
2022/05/15 14:45:24;;;;;;;13.13;2.53;;;27.40;40.50;;;;;;9178690;19;20065;-71
2022/05/15 14:48:35;;;;;;;12.88;3.17;;;27.40;40.70;;;;;;9180833;19;20367;-71
2022/05/15 14:51:46;;;;;;;14.30;3.42;;;27.40;40.50;;;;;;9179163;19;20094;-70
2022/05/15 14:54:51;;;;;;;13.00;2.78;;;27.40;40.50;;;;;;9179490;19;20019;-71
2022/05/15 14:57:57;;;;;;;15.77;3.17;;;27.40;40.50;;;;;;9179366;19;20019;-70
2022/05/15 15:01:02;;;;;;;13.90;2.95;;;27.50;40.60;;;;;;9176606;19;20026;-70
2022/05/15 15:04:07;;;;;;;10.73;2.70;;;27.40;40.50;;;;;;9179676;19;20484;-70
2022/05/15 15:07:15;;;;;;;15.13;3.22;;;27.40;40.40;;;;;;9186503;19;20054;-72
2022/05/15 15:10:21;;;;;;;9.13;2.97;;;27.40;40.30;;;;;;9188448;19;20066;-72
2022/05/15 15:13:26;;;;;;;15.85;3.28;;;27.40;40.40;;;;;;9186209;19;20015;-72
2022/05/15 15:16:35;;;;;;;16.23;3.17;;;27.40;40.40;;;;;;9187648;19;20539;-70
2022/05/15 15:19:40;;;;;;;8.82;2.92;;;27.30;40.20;;;;;;9184018;19;20010;-70
2022/05/15 15:22:49;;;;;;;11.88;3.38;;;27.30;40.30;;;;;;9188174;19;20022;-72
2022/05/15 15:25:54;;;;;;;22.52;3.30;;;27.30;40.30;;;;;;9187306;19;20078;-69
2022/05/15 15:28:59;;;;;;;12.88;2.78;;;27.20;40.30;;;;;;9186075;19;20015;-72
2022/05/15 15:32:05;;;;;;;11.93;2.60;;;27.20;40.30;;;;;;9187383;19;20018;-73
2022/05/15 15:35:11;;;;;;;14.95;3.17;;;27.20;40.30;;;;;;9186711;19;20017;-70
2022/05/15 15:38:23;;;;;;;14.55;2.92;;;27.10;40.40;;;;;;9187232;19;20330;-73
2022/05/15 15:41:30;;;;;;;11.98;2.67;;;27.10;40.40;;;;;;9184258;19;20343;-73
2022/05/15 15:44:43;;;;;;;11.77;2.50;;;27.10;40.40;;;;;;9177186;19;20354;-71
2022/05/15 15:47:51;;;;;;;12.23;3.03;;;27.10;40.20;;;;;;9186283;19;20027;-73
2022/05/15 15:50:59;;;;;;;7.28;2.25;;;27.10;40.30;;;;;;9184610;19;20477;-71
2022/05/15 15:54:09;;;;;;;7.65;2.85;;;27.00;40.20;;;;;;9186331;19;20017;-72
2022/05/15 15:57:16;;;;;;;10.32;2.72;;;27.00;40.20;;;;;;9186615;19;20038;-70
2022/05/15 16:00:22;;;;;;;16.25;3.05;;;27.00;40.10;;;;;;9184063;19;20419;-70
2022/05/15 16:03:27;;;;;;;11.70;2.75;;;26.90;40.00;;;;;;9183713;19;20010;-71
2022/05/15 16:06:33;;;;;;;12.73;3.45;;;26.90;40.10;;;;;;9184593;19;20030;-71
2022/05/15 16:09:41;;;;;;;16.45;3.00;;;26.90;40.10;;;;;;9184188;19;20351;-71
2022/05/15 16:12:47;;;;;;;12.38;3.00;;;26.80;40.10;;;;;;9185375;19;20189;-71
2022/05/15 16:15:53;;;;;;;9.52;2.45;;;26.80;40.20;;;;;;9183830;19;20029;-72
2022/05/15 16:18:58;;;;;;;14.50;3.35;;;26.80;40.20;;;;;;9185418;19;20006;-72
2022/05/15 16:22:06;;;;;;;10.32;2.97;;;26.80;40.20;;;;;;9185416;19;20092;-70
2022/05/15 16:25:17;;;;;;;12.07;2.60;;;26.80;40.80;;;;;;9185708;19;20507;-71
2022/05/15 16:28:25;;;;;;;11.73;3.42;;;26.70;40.10;;;;;;9185368;19;20015;-72
2022/05/15 16:31:31;;;;;;;10.93;2.67;;;26.60;40.10;;;;;;9184437;19;20352;-71
2022/05/15 16:34:36;;;;;;;10.50;2.90;;;26.60;40.80;;;;;;9185086;19;20480;-72
2022/05/15 16:37:41;;;;;;;10.85;2.80;;;26.50;40.10;;;;;;9183398;19;20040;-71
2022/05/15 16:40:50;;;;;;;12.57;2.35;;;26.50;40.20;;;;;;9181180;19;20085;-70
2022/05/15 16:43:56;;;;;;;10.73;2.58;;;26.50;40.30;;;;;;9177361;19;20021;-71
2022/05/15 16:47:01;;;;;;;14.30;3.00;;;26.50;40.40;;;;;;9182607;19;20014;-70